createdAt,value
2022-10-19T00:11:29.173Z,15.32
2022-10-19T00:23:29.745Z,15.24
2022-10-19T00:35:30.075Z,15.20
2022-10-19T00:47:30.491Z,15.28
2022-10-19T00:59:30.996Z,15.54
2022-10-19T01:11:31.463Z,15.24
2022-10-19T01:23:31.895Z,15.31
2022-10-19T01:35:32.325Z,15.92
2022-10-19T01:47:33.097Z,16.49
2022-10-19T01:59:33.254Z,17.47
2022-10-19T02:11:33.701Z,18.19
2022-10-19T02:23:34.149Z,18.30
2022-10-19T02:35:34.633Z,18.11
2022-10-19T02:47:35.338Z,17.76
2022-10-19T02:59:35.520Z,17.87
2022-10-19T03:11:35.981Z,17.78
2022-10-19T03:23:36.450Z,17.75
2022-10-19T03:35:36.869Z,17.90
2022-10-19T03:47:37.343Z,17.62
2022-10-19T03:59:37.792Z,17.99
2022-10-19T04:11:38.269Z,17.63
2022-10-19T04:23:38.729Z,16.59
2022-10-19T04:35:39.145Z,17.34
2022-10-19T04:47:39.565Z,17.19
2022-10-19T04:59:40.087Z,16.63
2022-10-19T05:11:40.535Z,16.20
2022-10-19T05:23:40.983Z,16.06
2022-10-19T05:35:41.415Z,15.97
2022-10-19T05:47:41.891Z,15.72
2022-10-19T05:59:42.326Z,14.96
2022-10-19T06:11:42.764Z,14.58
2022-10-19T06:23:43.232Z,16.32
2022-10-19T06:35:43.670Z,16.43
2022-10-19T06:47:44.212Z,17.30
2022-10-19T06:59:44.590Z,16.65
2022-10-19T07:11:46.126Z,17.28
2022-10-19T07:23:45.525Z,17.36
2022-10-19T07:35:45.977Z,18.51
2022-10-19T07:47:46.411Z,18.43
2022-10-19T07:59:46.866Z,18.67
2022-10-19T08:11:47.345Z,18.82
2022-10-19T08:23:47.802Z,19.18
2022-10-19T08:35:48.210Z,18.80
2022-10-19T08:47:48.662Z,19.14
2022-10-19T08:59:49.150Z,19.15
2022-10-19T09:11:49.598Z,20.90
2022-10-19T09:23:50.046Z,19.61
2022-10-19T09:35:50.448Z,20.74
2022-10-19T09:47:50.982Z,19.97
2022-10-19T09:59:51.428Z,20.57
2022-10-19T10:11:51.932Z,20.91
2022-10-19T10:23:52.338Z,21.84
2022-10-19T10:35:52.764Z,20.62
2022-10-19T10:47:53.268Z,21.40
2022-10-19T10:59:53.700Z,21.87
2022-10-19T11:11:54.159Z,21.05
2022-10-19T11:23:54.591Z,21.76
2022-10-19T11:35:55.070Z,20.86
2022-10-19T11:47:55.507Z,20.58
2022-10-19T12:00:00.302Z,21.08
2022-10-19T12:11:56.433Z,21.63
2022-10-19T12:23:56.884Z,22.15
2022-10-19T12:35:57.306Z,21.09
2022-10-19T12:47:57.783Z,22.21
2022-10-19T12:59:58.266Z,22.66
2022-10-19T13:11:58.724Z,22.30
2022-10-19T13:23:59.156Z,22.25
2022-10-19T13:35:59.655Z,23.55
2022-10-19T13:48:00.086Z,22.90
2022-10-19T14:00:00.548Z,22.05
2022-10-19T14:12:00.997Z,22.43
2022-10-19T14:24:01.450Z,21.15
2022-10-19T14:36:01.909Z,20.70
2022-10-19T14:48:02.364Z,20.23
2022-10-19T15:00:02.864Z,19.41
2022-10-19T15:12:03.228Z,19.33
2022-10-19T15:24:03.717Z,19.24
2022-10-19T15:36:04.186Z,19.34
2022-10-19T15:48:04.884Z,19.02
2022-10-19T16:00:05.059Z,18.31
2022-10-19T16:12:05.525Z,17.77
2022-10-19T16:24:05.997Z,18.00
2022-10-19T16:36:06.410Z,17.97
2022-10-19T16:48:06.882Z,17.57
2022-10-19T17:00:07.356Z,17.38
2022-10-19T17:12:07.803Z,16.92
2022-10-19T17:24:08.252Z,17.56
2022-10-19T17:36:08.691Z,17.26
2022-10-19T17:48:09.159Z,17.23
2022-10-19T18:00:09.602Z,16.91
2022-10-19T18:12:10.069Z,16.35
2022-10-19T18:24:12.855Z,16.56
2022-10-19T18:36:10.954Z,16.29
2022-10-19T18:48:11.467Z,16.17
2022-10-19T19:00:11.895Z,16.10
2022-10-19T19:12:12.335Z,15.63
2022-10-19T19:24:12.781Z,15.80
2022-10-19T19:36:13.253Z,15.97
2022-10-19T19:48:13.655Z,16.16
2022-10-19T20:00:14.152Z,15.75
2022-10-19T20:12:14.626Z,15.68
2022-10-19T20:24:15.085Z,15.94
2022-10-19T20:36:15.516Z,15.64
2022-10-19T20:48:15.933Z,15.82
2022-10-19T21:00:16.423Z,15.58
2022-10-19T21:12:16.920Z,15.53
2022-10-19T21:24:17.328Z,15.12
2022-10-19T21:36:17.735Z,14.82
2022-10-19T21:48:18.247Z,14.13
2022-10-19T22:00:18.697Z,13.81
2022-10-19T22:12:19.171Z,13.09
2022-10-19T22:24:19.599Z,13.87
2022-10-19T22:36:20.070Z,13.11
2022-10-19T22:48:20.518Z,13.32
2022-10-19T23:00:20.930Z,13.05
2022-10-19T23:12:21.402Z,13.46
2022-10-19T23:24:21.822Z,13.09
2022-10-19T23:36:22.332Z,12.51
2022-10-19T23:48:22.768Z,12.68
